createdAt,value
2022-10-07T00:01:03.457Z,38.73
2022-10-07T00:06:17.525Z,38.80
2022-10-07T00:11:22.687Z,38.47
2022-10-07T00:16:34.951Z,38.47
2022-10-07T00:21:39.212Z,43.30
2022-10-07T00:26:41.855Z,38.90
2022-10-07T00:31:44.304Z,39.40
2022-10-07T00:36:46.859Z,38.60
2022-10-07T00:41:52.721Z,36.07
2022-10-07T00:46:55.828Z,36.30
2022-10-07T00:51:58.536Z,36.40
2022-10-07T00:57:01.034Z,38.20
2022-10-07T01:02:03.961Z,36.20
2022-10-07T01:07:06.481Z,35.43
2022-10-07T01:12:44.834Z,35.37
2022-10-07T01:18:08.538Z,33.17
2022-10-07T01:23:20.816Z,33.43
2022-10-07T01:28:56.616Z,30.83
2022-10-07T01:34:00.427Z,27.33
2022-10-07T01:39:08.069Z,29.30
2022-10-07T01:44:12.546Z,27.90
2022-10-07T01:49:15.199Z,29.30
2022-10-07T01:54:40.963Z,29.57
2022-10-07T01:59:51.331Z,26.40
2022-10-07T02:05:24.095Z,26.27
2022-10-07T02:10:48.481Z,25.43
2022-10-07T02:16:12.461Z,24.10
2022-10-07T02:21:16.622Z,23.67
2022-10-07T02:26:22.118Z,24.53
2022-10-07T02:31:30.380Z,25.33
2022-10-07T02:36:41.299Z,25.20
2022-10-07T02:42:10.007Z,24.57
2022-10-07T02:47:22.206Z,23.03
2022-10-07T02:52:26.146Z,22.67
2022-10-07T02:57:33.543Z,25.43
2022-10-07T03:02:46.219Z,24.17
2022-10-07T03:07:52.409Z,25.40
2022-10-07T03:12:57.254Z,25.63
2022-10-07T03:18:00.090Z,26.17
2022-10-07T03:23:04.855Z,24.80
2022-10-07T03:28:08.485Z,22.60
2022-10-07T03:33:11.269Z,20.27
2022-10-07T03:38:14.091Z,18.87
2022-10-07T03:43:16.840Z,17.50
2022-10-07T03:48:20.172Z,18.93
2022-10-07T03:53:23.757Z,18.20
2022-10-07T03:58:26.239Z,16.33
2022-10-07T04:03:29.000Z,15.93
2022-10-07T04:08:33.059Z,15.23
2022-10-07T04:13:37.303Z,16.07
2022-10-07T04:18:43.909Z,19.33
2022-10-07T04:23:47.024Z,24.00
2022-10-07T04:28:50.203Z,29.20
2022-10-07T04:33:58.346Z,26.97
2022-10-07T04:39:06.621Z,26.27
2022-10-07T04:44:12.305Z,22.73
2022-10-07T04:49:22.726Z,17.67
2022-10-07T04:54:26.132Z,17.70
2022-10-07T04:59:32.588Z,16.73
2022-10-07T05:04:37.153Z,19.03
2022-10-07T05:09:39.828Z,18.57
2022-10-07T05:14:43.178Z,20.40
2022-10-07T05:19:47.309Z,20.43
2022-10-07T05:24:49.834Z,22.07
2022-10-07T05:29:52.484Z,24.87
2022-10-07T05:34:56.102Z,41.63
2022-10-07T05:39:58.812Z,41.57
2022-10-07T05:45:05.265Z,42.00
2022-10-07T05:50:09.933Z,46.37
2022-10-07T05:55:13.980Z,87.50
2022-10-07T06:00:16.793Z,68.80
2022-10-07T06:05:25.099Z,54.47
2022-10-07T06:10:46.505Z,37.77
2022-10-07T06:15:49.363Z,36.07
2022-10-07T06:21:00.413Z,36.90
2022-10-07T06:26:09.697Z,25.73
2022-10-07T06:31:17.646Z,28.43
2022-10-07T06:36:20.729Z,26.33
2022-10-07T06:41:26.799Z,29.07
2022-10-07T06:46:42.400Z,26.13
2022-10-07T06:51:55.581Z,29.23
2022-10-07T06:56:58.689Z,27.53
2022-10-07T07:02:01.862Z,19.93
2022-10-07T07:07:08.158Z,21.97
2022-10-07T07:12:11.198Z,19.30
2022-10-07T07:17:20.894Z,21.43
2022-10-07T07:22:24.031Z,16.17
2022-10-07T07:27:26.682Z,16.00
2022-10-07T07:32:30.323Z,15.40
2022-10-07T07:37:45.256Z,15.50
2022-10-07T07:48:43.805Z,17.20
2022-10-07T07:53:50.263Z,15.33
2022-10-07T07:58:58.486Z,26.47
2022-10-07T08:04:18.133Z,11.80
2022-10-07T08:09:25.895Z,11.30
2022-10-07T08:14:30.359Z,10.10
2022-10-07T08:19:55.971Z,10.30
2022-10-07T08:25:22.899Z,9.00
2022-10-07T08:30:59.143Z,7.23
2022-10-07T08:37:12.339Z,7.43
2022-10-07T08:42:46.383Z,7.00
2022-10-07T08:47:58.833Z,6.93
2022-10-07T08:53:20.637Z,6.60
2022-10-07T08:58:50.309Z,6.20
2022-10-07T09:03:56.070Z,5.73
2022-10-07T09:09:04.577Z,6.13
2022-10-07T09:14:26.414Z,6.00
2022-10-07T09:19:44.085Z,5.90
2022-10-07T09:24:49.353Z,5.80
2022-10-07T09:29:51.936Z,5.97
2022-10-07T09:34:54.341Z,5.93
2022-10-07T09:40:30.576Z,5.10
2022-10-07T09:45:33.593Z,4.80
2022-10-07T09:50:42.163Z,5.17
2022-10-07T09:55:49.821Z,5.37
2022-10-07T10:00:55.536Z,4.30
2022-10-07T10:06:04.253Z,3.50
2022-10-07T10:11:20.056Z,3.43
2022-10-07T10:16:26.090Z,3.27
2022-10-07T10:21:32.685Z,3.20
2022-10-07T10:27:09.535Z,3.47
2022-10-07T10:32:37.068Z,3.00
2022-10-07T10:37:58.352Z,3.00
2022-10-07T10:43:20.378Z,3.27
2022-10-07T10:48:31.595Z,3.67
2022-10-07T10:54:04.789Z,3.63
2022-10-07T10:59:37.735Z,3.60
2022-10-07T11:04:52.364Z,3.53
2022-10-07T11:09:59.990Z,3.50
2022-10-07T11:15:15.903Z,3.70
2022-10-07T11:20:27.507Z,3.23
2022-10-07T11:25:37.697Z,3.10
2022-10-07T11:30:48.896Z,4.97
2022-10-07T11:36:03.390Z,3.53
2022-10-07T11:41:24.575Z,3.60
2022-10-07T11:46:36.408Z,4.17
2022-10-07T11:51:50.597Z,3.37
2022-10-07T11:57:00.423Z,3.63
2022-10-07T12:02:03.308Z,3.47
2022-10-07T12:07:37.129Z,4.17
2022-10-07T12:12:43.163Z,3.63
2022-10-07T12:18:06.069Z,3.23
2022-10-07T12:23:22.311Z,3.67
2022-10-07T12:28:46.104Z,2.30
2022-10-07T12:34:09.520Z,3.33
2022-10-07T12:39:11.935Z,3.43
2022-10-07T12:44:31.213Z,3.10
2022-10-07T12:49:50.360Z,3.10
2022-10-07T12:55:19.469Z,3.23
2022-10-07T13:00:24.708Z,3.27
2022-10-07T13:05:54.942Z,3.10
2022-10-07T13:11:31.149Z,2.57
2022-10-07T13:17:00.609Z,2.70
2022-10-07T13:22:13.285Z,2.60
2022-10-07T13:27:20.023Z,2.47
2022-10-07T13:32:30.192Z,3.23
2022-10-07T13:37:38.347Z,3.40
2022-10-07T13:42:40.888Z,3.37
2022-10-07T13:47:45.613Z,3.40
2022-10-07T13:52:49.853Z,3.63
2022-10-07T13:57:54.896Z,3.70
2022-10-07T14:02:59.194Z,3.50
2022-10-07T14:08:16.310Z,3.47
2022-10-07T14:13:19.173Z,3.20
2022-10-07T14:18:22.084Z,2.90
2022-10-07T14:23:32.817Z,2.87
2022-10-07T14:28:39.537Z,2.90
2022-10-07T14:34:03.530Z,3.17
2022-10-07T14:39:23.627Z,6.43
2022-10-07T14:44:26.259Z,3.13
2022-10-07T14:49:28.755Z,2.97
2022-10-07T14:54:32.219Z,3.57
2022-10-07T14:59:35.488Z,5.13
2022-10-07T15:04:38.041Z,4.93
2022-10-07T15:09:41.373Z,5.43
2022-10-07T15:14:43.888Z,7.00
2022-10-07T15:19:46.376Z,6.53
2022-10-07T15:25:10.845Z,8.20
2022-10-07T15:30:13.685Z,10.87
2022-10-07T15:35:16.279Z,46.80
2022-10-07T15:40:18.743Z,50.93
2022-10-07T15:45:21.120Z,47.23
2022-10-07T15:50:23.570Z,28.37
2022-10-07T15:55:25.984Z,23.57
2022-10-07T16:00:28.415Z,16.00
2022-10-07T16:05:31.399Z,17.63
2022-10-07T16:10:37.270Z,13.70
2022-10-07T16:15:39.851Z,32.90
2022-10-07T16:20:42.421Z,55.13
2022-10-07T16:25:44.809Z,28.17
2022-10-07T16:30:51.255Z,18.23
2022-10-07T16:35:53.753Z,30.20
2022-10-07T16:40:56.149Z,27.67
2022-10-07T16:46:03.116Z,26.40
2022-10-07T16:51:13.570Z,28.67
2022-10-07T16:56:20.535Z,39.03
2022-10-07T17:01:23.389Z,55.10
2022-10-07T17:06:27.803Z,50.53
2022-10-07T17:11:33.269Z,34.20
2022-10-07T17:16:39.010Z,26.67
2022-10-07T17:21:42.392Z,22.07
2022-10-07T17:26:45.959Z,26.13
2022-10-07T17:31:50.697Z,29.13
2022-10-07T17:36:54.332Z,30.57
2022-10-07T17:41:57.516Z,34.90
2022-10-07T17:47:03.567Z,44.23
2022-10-07T17:52:06.079Z,44.87
2022-10-07T17:57:08.472Z,48.00
2022-10-07T18:02:10.906Z,43.23
2022-10-07T18:07:14.302Z,41.10
2022-10-07T18:12:35.280Z,40.03
2022-10-07T18:17:37.676Z,50.57
2022-10-07T18:22:40.075Z,53.73
2022-10-07T18:27:43.622Z,62.87
2022-10-07T18:32:46.316Z,57.57
2022-10-07T18:37:51.697Z,65.90
2022-10-07T18:42:54.170Z,67.17
2022-10-07T18:47:56.587Z,65.33
2022-10-07T18:53:00.727Z,72.70
2022-10-07T18:58:03.072Z,94.93
2022-10-07T19:03:05.412Z,96.57
2022-10-07T19:08:08.004Z,138.40
2022-10-07T19:13:32.513Z,94.20
2022-10-07T19:18:35.494Z,87.30
2022-10-07T19:23:38.562Z,88.80
2022-10-07T19:28:41.599Z,82.63
2022-10-07T19:33:45.720Z,89.90
2022-10-07T19:38:53.654Z,87.47
2022-10-07T19:43:57.007Z,78.97
2022-10-07T19:49:01.459Z,80.20
2022-10-07T19:54:10.106Z,105.03
2022-10-07T19:59:14.237Z,98.07
2022-10-07T20:04:20.796Z,99.57
2022-10-07T20:09:23.358Z,91.00
2022-10-07T20:14:25.878Z,90.67
2022-10-07T20:19:28.375Z,92.03
2022-10-07T20:24:30.837Z,86.13
2022-10-07T20:29:53.208Z,84.57
2022-10-07T20:35:17.889Z,70.37
2022-10-07T20:40:39.279Z,69.47
2022-10-07T20:45:56.787Z,86.13
2022-10-07T20:51:08.435Z,88.93
2022-10-07T20:56:10.973Z,87.03
2022-10-07T21:01:13.821Z,86.63
2022-10-07T21:06:18.666Z,92.53
2022-10-07T21:11:21.263Z,122.60
2022-10-07T21:16:26.539Z,117.07
2022-10-07T21:21:29.465Z,120.77
2022-10-07T21:26:31.950Z,112.53
2022-10-07T21:31:35.825Z,114.80
2022-10-07T21:36:41.122Z,114.47
2022-10-07T21:41:47.925Z,110.57
2022-10-07T21:47:01.329Z,96.13
2022-10-07T21:52:03.782Z,83.70
2022-10-07T21:57:06.250Z,85.33
2022-10-07T22:02:08.759Z,80.70
2022-10-07T22:07:30.772Z,83.13
2022-10-07T22:12:33.275Z,81.07
2022-10-07T22:17:35.740Z,83.20
2022-10-07T22:22:38.148Z,87.27
2022-10-07T22:27:40.604Z,92.73
2022-10-07T22:32:43.021Z,99.27
2022-10-07T22:37:45.505Z,93.70
2022-10-07T22:42:48.350Z,108.23
2022-10-07T22:47:50.964Z,101.13
2022-10-07T22:52:56.242Z,98.60
2022-10-07T22:58:02.039Z,95.80
2022-10-07T23:03:05.680Z,92.80
2022-10-07T23:08:08.195Z,93.53
2022-10-07T23:13:10.548Z,94.43
2022-10-07T23:18:12.927Z,77.23
2022-10-07T23:23:15.315Z,110.47
2022-10-07T23:28:18.437Z,110.67
2022-10-07T23:33:20.883Z,134.87
2022-10-07T23:38:26.358Z,116.43
2022-10-07T23:43:33.303Z,104.30
2022-10-07T23:48:35.878Z,95.10
2022-10-07T23:53:38.835Z,83.77
2022-10-07T23:58:41.505Z,79.03
